League City, Texas
Current Conditions -  °F | °C
As of 6:50 PM on Tuesday 25 Nov 2014 (Local Time) from KEFD Reporting Station
Clear Clear  
Wind Chill: 52°   Ceiling: Unl
Heat Index: 52°   Visibility: 10mi
Dew Point: 34°   Wind: 5mph
Humidity: 50%   Direction: 160°SSE
Pressure: 30.26"   Gusts: NA
Location:  29.5°N, 95.09°W
Report Text: KEFD 260050Z 16004KT 10SM CLR 11/01 A3026
Loading
Personal Weather Stations






























Interactive Weather Map New forecast layout! Learn more

10-Day Weather Forecast

Advertisements
Track Severe Weather on mobile